sensor_id;sensor_type;location;lat;lon;timestamp;P1;durP1;ratioP1;P2;durP2;ratioP2
35462;SDS011;21578;47.892;9.970;2023-08-24T00:01:36;3.47;;;3.17;;
35462;SDS011;21578;47.892;9.970;2023-08-24T00:06:25;3.90;;;3.57;;
35462;SDS011;21578;47.892;9.970;2023-08-24T00:11:12;5.50;;;3.90;;
35462;SDS011;21578;47.892;9.970;2023-08-24T00:16:00;4.07;;;3.70;;
35462;SDS011;21578;47.892;9.970;2023-08-24T00:20:47;3.70;;;3.40;;
35462;SDS011;21578;47.892;9.970;2023-08-24T00:25:36;5.30;;;3.90;;
35462;SDS011;21578;47.892;9.970;2023-08-24T00:30:23;4.67;;;3.67;;
35462;SDS011;21578;47.892;9.970;2023-08-24T00:35:10;3.70;;;3.37;;
35462;SDS011;21578;47.892;9.970;2023-08-24T00:39:57;6.43;;;4.10;;
35462;SDS011;21578;47.892;9.970;2023-08-24T00:44:47;4.00;;;3.70;;
35462;SDS011;21578;47.892;9.970;2023-08-24T00:49:34;9.40;;;3.93;;
35462;SDS011;21578;47.892;9.970;2023-08-24T00:54:21;6.23;;;3.90;;
35462;SDS011;21578;47.892;9.970;2023-08-24T00:59:08;4.67;;;4.00;;
35462;SDS011;21578;47.892;9.970;2023-08-24T01:03:57;4.40;;;3.60;;
35462;SDS011;21578;47.892;9.970;2023-08-24T01:08:44;3.80;;;3.50;;
35462;SDS011;21578;47.892;9.970;2023-08-24T01:13:32;4.10;;;3.80;;
35462;SDS011;21578;47.892;9.970;2023-08-24T01:18:26;4.23;;;3.70;;
35462;SDS011;21578;47.892;9.970;2023-08-24T01:23:27;3.70;;;3.40;;
35462;SDS011;21578;47.892;9.970;2023-08-24T01:28:21;5.07;;;3.80;;
35462;SDS011;21578;47.892;9.970;2023-08-24T01:33:09;5.67;;;4.10;;
35462;SDS011;21578;47.892;9.970;2023-08-24T01:37:57;4.47;;;4.03;;
35462;SDS011;21578;47.892;9.970;2023-08-24T01:42:48;5.93;;;4.00;;
35462;SDS011;21578;47.892;9.970;2023-08-24T01:47:42;4.43;;;4.03;;
35462;SDS011;21578;47.892;9.970;2023-08-24T01:52:29;7.93;;;4.57;;
35462;SDS011;21578;47.892;9.970;2023-08-24T01:57:17;4.60;;;4.20;;
35462;SDS011;21578;47.892;9.970;2023-08-24T02:02:04;6.50;;;4.60;;
35462;SDS011;21578;47.892;9.970;2023-08-24T02:06:53;4.77;;;4.37;;
35462;SDS011;21578;47.892;9.970;2023-08-24T02:11:40;5.63;;;4.90;;
35462;SDS011;21578;47.892;9.970;2023-08-24T02:16:27;4.97;;;4.50;;
35462;SDS011;21578;47.892;9.970;2023-08-24T02:21:14;6.07;;;4.40;;
35462;SDS011;21578;47.892;9.970;2023-08-24T02:26:02;5.10;;;4.70;;
35462;SDS011;21578;47.892;9.970;2023-08-24T02:30:49;5.27;;;4.80;;
35462;SDS011;21578;47.892;9.970;2023-08-24T02:35:36;6.33;;;5.13;;
35462;SDS011;21578;47.892;9.970;2023-08-24T02:40:23;5.97;;;4.83;;
35462;SDS011;21578;47.892;9.970;2023-08-24T02:45:11;5.80;;;4.90;;
35462;SDS011;21578;47.892;9.970;2023-08-24T02:49:58;7.10;;;5.00;;
35462;SDS011;21578;47.892;9.970;2023-08-24T02:54:45;8.13;;;4.97;;
35462;SDS011;21578;47.892;9.970;2023-08-24T02:59:32;6.07;;;5.47;;
35462;SDS011;21578;47.892;9.970;2023-08-24T03:04:20;6.13;;;5.63;;
35462;SDS011;21578;47.892;9.970;2023-08-24T03:09:08;6.77;;;6.07;;
35462;SDS011;21578;47.892;9.970;2023-08-24T03:13:55;10.30;;;6.53;;
35462;SDS011;21578;47.892;9.970;2023-08-24T03:18:42;8.13;;;6.70;;
35462;SDS011;21578;47.892;9.970;2023-08-24T03:23:30;7.37;;;6.67;;
35462;SDS011;21578;47.892;9.970;2023-08-24T03:28:17;8.03;;;6.37;;
35462;SDS011;21578;47.892;9.970;2023-08-24T03:33:04;8.67;;;7.57;;
35462;SDS011;21578;47.892;9.970;2023-08-24T03:37:52;8.43;;;6.90;;
35462;SDS011;21578;47.892;9.970;2023-08-24T03:42:40;8.67;;;7.27;;
35462;SDS011;21578;47.892;9.970;2023-08-24T03:47:27;8.63;;;7.87;;
35462;SDS011;21578;47.892;9.970;2023-08-24T03:52:14;8.93;;;7.70;;
35462;SDS011;21578;47.892;9.970;2023-08-24T03:57:01;9.50;;;7.90;;
35462;SDS011;21578;47.892;9.970;2023-08-24T04:01:49;8.43;;;7.60;;
35462;SDS011;21578;47.892;9.970;2023-08-24T04:06:36;8.90;;;8.07;;
35462;SDS011;21578;47.892;9.970;2023-08-24T04:11:23;8.73;;;7.93;;
35462;SDS011;21578;47.892;9.970;2023-08-24T04:16:10;9.93;;;8.93;;
35462;SDS011;21578;47.892;9.970;2023-08-24T04:20:58;9.03;;;8.13;;
35462;SDS011;21578;47.892;9.970;2023-08-24T04:25:45;9.33;;;8.33;;
35462;SDS011;21578;47.892;9.970;2023-08-24T04:30:32;9.70;;;8.70;;
35462;SDS011;21578;47.892;9.970;2023-08-24T04:35:19;8.90;;;8.10;;
35462;SDS011;21578;47.892;9.970;2023-08-24T04:40:08;9.23;;;7.67;;
35462;SDS011;21578;47.892;9.970;2023-08-24T04:44:56;8.83;;;7.57;;
35462;SDS011;21578;47.892;9.970;2023-08-24T04:49:43;8.23;;;7.40;;
35462;SDS011;21578;47.892;9.970;2023-08-24T04:54:30;9.13;;;7.10;;
35462;SDS011;21578;47.892;9.970;2023-08-24T04:59:18;9.70;;;7.07;;
35462;SDS011;21578;47.892;9.970;2023-08-24T05:04:05;6.80;;;5.97;;
35462;SDS011;21578;47.892;9.970;2023-08-24T05:08:52;9.53;;;6.33;;
35462;SDS011;21578;47.892;9.970;2023-08-24T05:13:39;8.50;;;6.90;;
35462;SDS011;21578;47.892;9.970;2023-08-24T05:18:27;10.13;;;6.53;;
35462;SDS011;21578;47.892;9.970;2023-08-24T05:23:14;8.23;;;7.17;;
35462;SDS011;21578;47.892;9.970;2023-08-24T05:28:01;8.03;;;6.47;;
35462;SDS011;21578;47.892;9.970;2023-08-24T05:32:48;9.13;;;6.87;;
35462;SDS011;21578;47.892;9.970;2023-08-24T05:37:37;8.97;;;7.10;;
35462;SDS011;21578;47.892;9.970;2023-08-24T05:42:24;10.10;;;6.90;;
35462;SDS011;21578;47.892;9.970;2023-08-24T05:47:11;9.20;;;6.37;;
35462;SDS011;21578;47.892;9.970;2023-08-24T05:51:58;8.60;;;6.83;;
35462;SDS011;21578;47.892;9.970;2023-08-24T05:56:47;10.43;;;8.13;;
35462;SDS011;21578;47.892;9.970;2023-08-24T06:01:34;8.00;;;7.03;;
35462;SDS011;21578;47.892;9.970;2023-08-24T06:06:23;6.77;;;6.17;;
35462;SDS011;21578;47.892;9.970;2023-08-24T06:11:10;8.87;;;6.40;;
35462;SDS011;21578;47.892;9.970;2023-08-24T06:15:58;10.17;;;6.83;;
35462;SDS011;21578;47.892;9.970;2023-08-24T06:20:45;10.83;;;6.77;;
35462;SDS011;21578;47.892;9.970;2023-08-24T06:25:34;9.33;;;6.47;;
35462;SDS011;21578;47.892;9.970;2023-08-24T06:30:21;10.07;;;6.73;;
35462;SDS011;21578;47.892;9.970;2023-08-24T06:35:10;8.57;;;6.30;;
35462;SDS011;21578;47.892;9.970;2023-08-24T06:39:59;10.73;;;6.60;;
35462;SDS011;21578;47.892;9.970;2023-08-24T06:44:46;9.97;;;5.83;;
35462;SDS011;21578;47.892;9.970;2023-08-24T06:49:35;7.20;;;6.00;;
35462;SDS011;21578;47.892;9.970;2023-08-24T06:54:23;10.97;;;6.00;;
35462;SDS011;21578;47.892;9.970;2023-08-24T06:59:10;9.43;;;5.97;;
35462;SDS011;21578;47.892;9.970;2023-08-24T07:03:58;7.87;;;5.27;;
35462;SDS011;21578;47.892;9.970;2023-08-24T07:08:45;5.63;;;5.00;;
35462;SDS011;21578;47.892;9.970;2023-08-24T07:13:33;6.27;;;5.00;;
35462;SDS011;21578;47.892;9.970;2023-08-24T07:18:20;7.83;;;4.90;;
35462;SDS011;21578;47.892;9.970;2023-08-24T07:23:07;8.03;;;4.87;;
35462;SDS011;21578;47.892;9.970;2023-08-24T07:27:54;10.37;;;5.00;;
35462;SDS011;21578;47.892;9.970;2023-08-24T07:32:44;8.90;;;4.97;;
35462;SDS011;21578;47.892;9.970;2023-08-24T07:37:31;11.20;;;4.67;;
35462;SDS011;21578;47.892;9.970;2023-08-24T07:42:19;8.33;;;4.20;;
35462;SDS011;21578;47.892;9.970;2023-08-24T07:47:06;9.73;;;4.13;;
35462;SDS011;21578;47.892;9.970;2023-08-24T07:51:55;6.07;;;3.87;;
35462;SDS011;21578;47.892;9.970;2023-08-24T07:56:42;10.57;;;4.33;;
35462;SDS011;21578;47.892;9.970;2023-08-24T08:01:29;11.27;;;4.00;;
35462;SDS011;21578;47.892;9.970;2023-08-24T08:06:16;8.17;;;4.30;;
35462;SDS011;21578;47.892;9.970;2023-08-24T08:11:04;8.73;;;4.10;;
35462;SDS011;21578;47.892;9.970;2023-08-24T08:15:51;8.20;;;4.07;;
35462;SDS011;21578;47.892;9.970;2023-08-24T08:20:39;12.30;;;4.43;;
35462;SDS011;21578;47.892;9.970;2023-08-24T08:25:26;6.67;;;4.17;;
35462;SDS011;21578;47.892;9.970;2023-08-24T08:30:14;9.37;;;4.30;;
35462;SDS011;21578;47.892;9.970;2023-08-24T08:35:01;8.67;;;4.87;;
35462;SDS011;21578;47.892;9.970;2023-08-24T08:39:49;8.50;;;4.07;;
35462;SDS011;21578;47.892;9.970;2023-08-24T08:44:36;10.47;;;4.47;;
35462;SDS011;21578;47.892;9.970;2023-08-24T08:49:24;8.93;;;4.30;;
35462;SDS011;21578;47.892;9.970;2023-08-24T08:54:11;8.40;;;4.30;;
35462;SDS011;21578;47.892;9.970;2023-08-24T08:58:59;7.43;;;4.13;;
35462;SDS011;21578;47.892;9.970;2023-08-24T09:03:47;7.45;;;4.78;;
35462;SDS011;21578;47.892;9.970;2023-08-24T09:08:35;7.87;;;4.70;;
35462;SDS011;21578;47.892;9.970;2023-08-24T09:13:23;6.03;;;4.67;;
35462;SDS011;21578;47.892;9.970;2023-08-24T09:18:10;8.33;;;4.60;;
35462;SDS011;21578;47.892;9.970;2023-08-24T09:22:57;8.02;;;4.30;;
35462;SDS011;21578;47.892;9.970;2023-08-24T09:27:46;8.98;;;4.55;;
35462;SDS011;21578;47.892;9.970;2023-08-24T09:32:42;10.30;;;4.28;;
35462;SDS011;21578;47.892;9.970;2023-08-24T09:37:31;6.70;;;3.90;;
35462;SDS011;21578;47.892;9.970;2023-08-24T09:42:20;6.38;;;4.13;;
35462;SDS011;21578;47.892;9.970;2023-08-24T09:47:13;7.07;;;3.92;;
35462;SDS011;21578;47.892;9.970;2023-08-24T09:52:00;7.68;;;3.55;;
35462;SDS011;21578;47.892;9.970;2023-08-24T09:56:52;6.35;;;3.78;;
35462;SDS011;21578;47.892;9.970;2023-08-24T10:01:42;12.65;;;4.05;;
35462;SDS011;21578;47.892;9.970;2023-08-24T10:06:31;10.35;;;3.65;;
35462;SDS011;21578;47.892;9.970;2023-08-24T10:11:22;9.35;;;3.78;;
35462;SDS011;21578;47.892;9.970;2023-08-24T10:16:12;8.32;;;3.65;;
35462;SDS011;21578;47.892;9.970;2023-08-24T10:21:00;7.75;;;4.03;;
35462;SDS011;21578;47.892;9.970;2023-08-24T10:25:50;9.68;;;3.67;;
35462;SDS011;21578;47.892;9.970;2023-08-24T10:30:38;9.73;;;3.88;;
35462;SDS011;21578;47.892;9.970;2023-08-24T10:35:28;8.95;;;4.25;;
35462;SDS011;21578;47.892;9.970;2023-08-24T10:40:17;9.68;;;4.18;;
35462;SDS011;21578;47.892;9.970;2023-08-24T10:45:19;11.23;;;3.50;;
35462;SDS011;21578;47.892;9.970;2023-08-24T10:50:09;8.60;;;3.75;;
35462;SDS011;21578;47.892;9.970;2023-08-24T10:54:57;14.13;;;4.20;;
35462;SDS011;21578;47.892;9.970;2023-08-24T10:59:57;11.57;;;3.33;;
35462;SDS011;21578;47.892;9.970;2023-08-24T11:10:10;9.55;;;3.60;;
35462;SDS011;21578;47.892;9.970;2023-08-24T11:14:58;15.93;;;3.78;;
35462;SDS011;21578;47.892;9.970;2023-08-24T11:19:47;11.52;;;3.80;;
35462;SDS011;21578;47.892;9.970;2023-08-24T11:24:36;12.23;;;3.97;;
35462;SDS011;21578;47.892;9.970;2023-08-24T11:29:24;8.93;;;4.10;;
35462;SDS011;21578;47.892;9.970;2023-08-24T11:34:14;12.20;;;3.88;;
35462;SDS011;21578;47.892;9.970;2023-08-24T11:39:01;10.20;;;3.92;;
35462;SDS011;21578;47.892;9.970;2023-08-24T11:43:58;10.10;;;3.70;;
35462;SDS011;21578;47.892;9.970;2023-08-24T11:53:55;13.30;;;4.00;;
35462;SDS011;21578;47.892;9.970;2023-08-24T11:58:48;16.60;;;3.97;;
35462;SDS011;21578;47.892;9.970;2023-08-24T12:03:41;19.70;;;4.68;;
35462;SDS011;21578;47.892;9.970;2023-08-24T12:08:36;15.40;;;4.78;;
35462;SDS011;21578;47.892;9.970;2023-08-24T12:13:37;11.68;;;4.13;;
35462;SDS011;21578;47.892;9.970;2023-08-24T12:18:35;19.92;;;4.47;;
35462;SDS011;21578;47.892;9.970;2023-08-24T12:23:33;15.75;;;4.50;;
35462;SDS011;21578;47.892;9.970;2023-08-24T12:28:27;16.75;;;4.05;;
35462;SDS011;21578;47.892;9.970;2023-08-24T12:33:30;16.60;;;4.47;;
35462;SDS011;21578;47.892;9.970;2023-08-24T12:38:17;14.93;;;4.32;;
35462;SDS011;21578;47.892;9.970;2023-08-24T12:43:12;19.20;;;4.32;;
35462;SDS011;21578;47.892;9.970;2023-08-24T12:47:59;13.63;;;3.97;;
35462;SDS011;21578;47.892;9.970;2023-08-24T12:52:52;18.20;;;4.55;;
35462;SDS011;21578;47.892;9.970;2023-08-24T12:57:41;10.70;;;4.30;;
35462;SDS011;21578;47.892;9.970;2023-08-24T13:02:30;12.73;;;4.13;;
35462;SDS011;21578;47.892;9.970;2023-08-24T13:17:59;12.02;;;4.35;;
35462;SDS011;21578;47.892;9.970;2023-08-24T13:22:46;13.95;;;4.72;;
35462;SDS011;21578;47.892;9.970;2023-08-24T13:27:33;11.20;;;4.10;;
35462;SDS011;21578;47.892;9.970;2023-08-24T13:32:29;14.45;;;4.40;;
35462;SDS011;21578;47.892;9.970;2023-08-24T13:37:37;13.98;;;4.63;;
35462;SDS011;21578;47.892;9.970;2023-08-24T13:42:24;13.25;;;4.40;;
35462;SDS011;21578;47.892;9.970;2023-08-24T13:47:11;15.80;;;4.35;;
35462;SDS011;21578;47.892;9.970;2023-08-24T13:51:59;13.35;;;3.78;;
35462;SDS011;21578;47.892;9.970;2023-08-24T13:56:48;16.30;;;4.50;;
35462;SDS011;21578;47.892;9.970;2023-08-24T14:01:38;19.25;;;4.35;;
35462;SDS011;21578;47.892;9.970;2023-08-24T14:06:34;13.38;;;4.70;;
35462;SDS011;21578;47.892;9.970;2023-08-24T14:39:24;11.45;;;4.30;;
35462;SDS011;21578;47.892;9.970;2023-08-24T14:44:12;12.57;;;4.53;;
35462;SDS011;21578;47.892;9.970;2023-08-24T14:49:00;15.82;;;4.25;;
35462;SDS011;21578;47.892;9.970;2023-08-24T14:53:48;13.55;;;4.22;;
35462;SDS011;21578;47.892;9.970;2023-08-24T14:58:36;16.17;;;4.38;;
35462;SDS011;21578;47.892;9.970;2023-08-24T15:03:24;13.52;;;3.88;;
35462;SDS011;21578;47.892;9.970;2023-08-24T15:08:11;12.65;;;3.90;;
35462;SDS011;21578;47.892;9.970;2023-08-24T15:12:58;10.90;;;3.42;;
35462;SDS011;21578;47.892;9.970;2023-08-24T15:17:49;11.73;;;3.72;;
35462;SDS011;21578;47.892;9.970;2023-08-24T15:22:37;13.00;;;3.90;;
35462;SDS011;21578;47.892;9.970;2023-08-24T15:27:29;12.68;;;3.55;;
35462;SDS011;21578;47.892;9.970;2023-08-24T15:32:21;12.70;;;3.65;;
35462;SDS011;21578;47.892;9.970;2023-08-24T15:37:10;15.68;;;4.47;;
35462;SDS011;21578;47.892;9.970;2023-08-24T15:41:57;14.80;;;4.07;;
35462;SDS011;21578;47.892;9.970;2023-08-24T15:46:44;13.55;;;3.47;;
35462;SDS011;21578;47.892;9.970;2023-08-24T15:51:31;9.45;;;3.67;;
35462;SDS011;21578;47.892;9.970;2023-08-24T15:56:19;12.32;;;3.30;;
35462;SDS011;21578;47.892;9.970;2023-08-24T16:01:06;8.50;;;3.25;;
35462;SDS011;21578;47.892;9.970;2023-08-24T16:05:55;15.52;;;3.22;;
35462;SDS011;21578;47.892;9.970;2023-08-24T16:10:43;14.02;;;3.47;;
35462;SDS011;21578;47.892;9.970;2023-08-24T16:15:31;14.10;;;4.10;;
35462;SDS011;21578;47.892;9.970;2023-08-24T16:20:18;10.02;;;3.65;;
35462;SDS011;21578;47.892;9.970;2023-08-24T16:25:06;9.48;;;3.22;;
35462;SDS011;21578;47.892;9.970;2023-08-24T16:29:54;13.48;;;3.80;;
35462;SDS011;21578;47.892;9.970;2023-08-24T16:34:42;13.57;;;4.03;;
35462;SDS011;21578;47.892;9.970;2023-08-24T16:39:29;7.78;;;2.80;;
35462;SDS011;21578;47.892;9.970;2023-08-24T16:44:16;12.23;;;3.00;;
35462;SDS011;21578;47.892;9.970;2023-08-24T16:49:03;11.75;;;3.10;;
35462;SDS011;21578;47.892;9.970;2023-08-24T16:53:51;6.75;;;2.60;;
35462;SDS011;21578;47.892;9.970;2023-08-24T16:58:39;9.10;;;2.85;;
35462;SDS011;21578;47.892;9.970;2023-08-24T17:03:26;7.40;;;2.58;;
35462;SDS011;21578;47.892;9.970;2023-08-24T17:08:13;12.73;;;2.78;;
35462;SDS011;21578;47.892;9.970;2023-08-24T17:13:02;10.63;;;3.20;;
35462;SDS011;21578;47.892;9.970;2023-08-24T17:17:49;11.32;;;2.88;;
35462;SDS011;21578;47.892;9.970;2023-08-24T17:22:36;10.95;;;4.32;;
35462;SDS011;21578;47.892;9.970;2023-08-24T17:27:23;6.47;;;2.75;;
35462;SDS011;21578;47.892;9.970;2023-08-24T17:32:11;11.02;;;2.80;;
35462;SDS011;21578;47.892;9.970;2023-08-24T17:36:58;12.45;;;3.10;;
35462;SDS011;21578;47.892;9.970;2023-08-24T17:41:45;12.23;;;3.05;;
35462;SDS011;21578;47.892;9.970;2023-08-24T17:46:32;9.30;;;3.53;;
35462;SDS011;21578;47.892;9.970;2023-08-24T18:48:13;8.23;;;4.38;;
35462;SDS011;21578;47.892;9.970;2023-08-24T18:53:00;12.25;;;4.70;;
35462;SDS011;21578;47.892;9.970;2023-08-24T18:57:47;13.10;;;4.82;;
35462;SDS011;21578;47.892;9.970;2023-08-24T19:02:33;10.35;;;4.30;;
35462;SDS011;21578;47.892;9.970;2023-08-24T19:07:22;12.65;;;4.80;;
35462;SDS011;21578;47.892;9.970;2023-08-24T19:12:09;8.80;;;5.00;;
35462;SDS011;21578;47.892;9.970;2023-08-24T19:16:56;21.08;;;6.55;;
35462;SDS011;21578;47.892;9.970;2023-08-24T19:21:43;9.80;;;3.93;;
35462;SDS011;21578;47.892;9.970;2023-08-24T19:26:31;16.23;;;5.30;;
35462;SDS011;21578;47.892;9.970;2023-08-24T19:31:18;11.40;;;4.07;;
35462;SDS011;21578;47.892;9.970;2023-08-24T19:36:05;10.63;;;4.30;;
35462;SDS011;21578;47.892;9.970;2023-08-24T19:40:52;12.77;;;4.73;;
35462;SDS011;21578;47.892;9.970;2023-08-24T19:45:40;12.30;;;5.17;;
35462;SDS011;21578;47.892;9.970;2023-08-24T19:50:27;9.20;;;3.33;;
35462;SDS011;21578;47.892;9.970;2023-08-24T19:55:14;7.73;;;3.47;;
35462;SDS011;21578;47.892;9.970;2023-08-24T20:00:02;10.97;;;4.53;;
35462;SDS011;21578;47.892;9.970;2023-08-24T20:04:53;8.73;;;4.20;;
35462;SDS011;21578;47.892;9.970;2023-08-24T20:09:40;7.17;;;4.13;;
35462;SDS011;21578;47.892;9.970;2023-08-24T20:14:27;9.27;;;4.47;;
35462;SDS011;21578;47.892;9.970;2023-08-24T20:19:14;13.60;;;4.80;;
35462;SDS011;21578;47.892;9.970;2023-08-24T20:24:03;10.47;;;5.07;;
35462;SDS011;21578;47.892;9.970;2023-08-24T20:28:50;9.33;;;4.67;;
35462;SDS011;21578;47.892;9.970;2023-08-24T20:33:37;8.33;;;4.57;;
35462;SDS011;21578;47.892;9.970;2023-08-24T20:38:24;9.53;;;5.20;;
35462;SDS011;21578;47.892;9.970;2023-08-24T20:43:12;9.17;;;5.23;;
35462;SDS011;21578;47.892;9.970;2023-08-24T20:47:59;10.93;;;5.77;;
35462;SDS011;21578;47.892;9.970;2023-08-24T20:52:47;11.37;;;5.40;;
35462;SDS011;21578;47.892;9.970;2023-08-24T20:57:34;11.40;;;5.50;;
35462;SDS011;21578;47.892;9.970;2023-08-24T21:02:22;13.80;;;4.87;;
35462;SDS011;21578;47.892;9.970;2023-08-24T21:07:09;10.13;;;5.33;;
35462;SDS011;21578;47.892;9.970;2023-08-24T21:11:57;9.37;;;4.67;;
35462;SDS011;21578;47.892;9.970;2023-08-24T21:16:44;10.67;;;5.57;;
35462;SDS011;21578;47.892;9.970;2023-08-24T21:21:32;7.13;;;4.63;;
35462;SDS011;21578;47.892;9.970;2023-08-24T21:26:19;6.47;;;4.33;;
35462;SDS011;21578;47.892;9.970;2023-08-24T21:31:06;5.77;;;3.23;;
35462;SDS011;21578;47.892;9.970;2023-08-24T21:35:53;3.57;;;2.37;;
35462;SDS011;21578;47.892;9.970;2023-08-24T21:40:41;5.23;;;2.10;;
35462;SDS011;21578;47.892;9.970;2023-08-24T21:45:28;4.03;;;2.20;;
35462;SDS011;21578;47.892;9.970;2023-08-24T21:50:15;3.77;;;1.77;;
35462;SDS011;21578;47.892;9.970;2023-08-24T21:55:02;2.63;;;1.73;;
35462;SDS011;21578;47.892;9.970;2023-08-24T21:59:51;6.77;;;2.47;;
35462;SDS011;21578;47.892;9.970;2023-08-24T22:04:38;5.70;;;2.30;;
35462;SDS011;21578;47.892;9.970;2023-08-24T22:09:24;4.83;;;2.43;;
35462;SDS011;21578;47.892;9.970;2023-08-24T22:14:12;6.97;;;2.73;;
35462;SDS011;21578;47.892;9.970;2023-08-24T22:19:00;6.20;;;2.20;;
35462;SDS011;21578;47.892;9.970;2023-08-24T22:23:47;5.53;;;2.13;;
35462;SDS011;21578;47.892;9.970;2023-08-24T22:28:35;4.47;;;2.20;;
35462;SDS011;21578;47.892;9.970;2023-08-24T22:33:22;4.57;;;2.30;;
35462;SDS011;21578;47.892;9.970;2023-08-24T22:38:10;8.03;;;2.27;;
35462;SDS011;21578;47.892;9.970;2023-08-24T22:42:57;3.53;;;2.00;;
35462;SDS011;21578;47.892;9.970;2023-08-24T22:47:45;5.27;;;2.47;;
35462;SDS011;21578;47.892;9.970;2023-08-24T22:52:32;3.23;;;2.07;;
35462;SDS011;21578;47.892;9.970;2023-08-24T22:57:20;5.60;;;2.27;;
35462;SDS011;21578;47.892;9.970;2023-08-24T23:02:07;3.73;;;2.20;;
35462;SDS011;21578;47.892;9.970;2023-08-24T23:07:04;3.40;;;1.90;;
35462;SDS011;21578;47.892;9.970;2023-08-24T23:11:52;3.20;;;2.13;;
35462;SDS011;21578;47.892;9.970;2023-08-24T23:16:41;4.33;;;2.60;;
35462;SDS011;21578;47.892;9.970;2023-08-24T23:21:27;5.20;;;2.50;;
35462;SDS011;21578;47.892;9.970;2023-08-24T23:26:14;8.87;;;2.77;;
35462;SDS011;21578;47.892;9.970;2023-08-24T23:31:02;5.47;;;2.50;;
35462;SDS011;21578;47.892;9.970;2023-08-24T23:35:50;4.80;;;2.60;;
35462;SDS011;21578;47.892;9.970;2023-08-24T23:40:37;4.93;;;2.07;;
35462;SDS011;21578;47.892;9.970;2023-08-24T23:45:24;3.20;;;1.70;;
35462;SDS011;21578;47.892;9.970;2023-08-24T23:50:10;3.47;;;1.70;;
35462;SDS011;21578;47.892;9.970;2023-08-24T23:54:59;3.37;;;1.60;;
35462;SDS011;21578;47.892;9.970;2023-08-24T23:59:47;4.10;;;1.87;;
